Mugan — 9HA2962 — position and weather

sailwx.info

Track history (hours):
 
Tides and Currents Weather Stations Pressure Air Temp Water Temp Dewpoint Dewpoint Depression Visibility Wind Speed Wind Dir Waves Ship Positions

Mugan

Last reported at 2014-Dec-20 05:07 UTC. Time now 2014-Dec-23 02:16 UTC.
Position N 41°20' E 029°39'.

Length 140 m; draft 4.3 m.

Type: Ship. MMSI: 256914000.

Date/timePositionNaut miles runAvg speedWind from/ knotsBaromVisibWave heightAir tempDewpointWater temp
2014-Dec-20 05:07N 41°20' E 029°39'5 9.3
2014-Dec-20 04:32N 41°19' E 029°33'13 9.7
2014-Dec-20 03:14N 41°15' E 029°16'21 7.7
2014-Dec-20 00:33N 40°59' E 028°60'6 1.5
2014-Dec-19 20:30N 40°57' E 028°52'0 0.0
2014-Dec-19 19:28N 40°57' E 028°52'0 0.0
2014-Dec-19 16:30N 40°57' E 028°52'0 0.0
2014-Dec-19 15:19N 40°57' E 028°52'0 0.0
2014-Dec-19 14:20N 40°57' E 028°52'0 0.0
2014-Dec-19 13:26N 40°57' E 028°52'0 0.0
2014-Dec-19 12:31N 40°57' E 028°52'0 0.0
2014-Dec-19 11:24N 40°57' E 028°52'0 0.0
2014-Dec-19 10:21N 40°57' E 028°52'0 0.0
2014-Dec-19 09:13N 40°57' E 028°52'0 0.0
2014-Dec-19 07:05N 40°57' E 028°52'0 0.0
2014-Dec-19 06:14N 40°57' E 028°52'0 0.0
2014-Dec-19 02:09N 40°57' E 028°52'0 0.1
2014-Dec-19 01:27N 40°57' E 028°52'0 0.0
2014-Dec-19 00:17N 40°57' E 028°52'0 0.1
2014-Dec-18 22:26N 40°57' E 028°52'0 0.0
2014-Dec-18 21:14N 40°57' E 028°52'0 0.0
2014-Dec-18 20:14N 40°57' E 028°52'0 0.4
2014-Dec-18 19:24N 40°57' E 028°52'7 6.8
2014-Dec-18 18:18N 40°51' E 028°46'227 7.6
2014-Dec-17 12:32N 37°51' E 025°46'10 9.9
2014-Dec-17 11:32N 37°41' E 025°46'9 9.4
2014-Dec-17 10:32N 37°32' E 025°49'10 9.8
2014-Dec-17 09:33N 37°24' E 025°55'10 9.5
2014-Dec-17 08:33N 37°16' E 026°01'31 9.4
2014-Dec-17 05:14N 36°48' E 026°21'  
Track history (hours):
 
Tides and Currents Weather Stations Pressure Air Temp Water Temp Dewpoint Dewpoint Depression Visibility Wind Speed Wind Dir Waves Ship Positions

Mugan

Last reported at 2014-Dec-20 05:07 UTC. Time now 2014-Dec-23 02:16 UTC.
Position N 41°20' E 029°39'.

Length 140 m; draft 4.3 m.

Type: Ship. MMSI: 256914000.

Date/timePositionNaut miles runAvg speedWind from/ knotsBaromVisibWave heightAir tempDewpointWater temp
2014-Dec-20 05:07N 41°20' E 029°39'5 9.3
2014-Dec-20 04:32N 41°19' E 029°33'13 9.7
2014-Dec-20 03:14N 41°15' E 029°16'21 7.7
2014-Dec-20 00:33N 40°59' E 028°60'6 1.5
2014-Dec-19 20:30N 40°57' E 028°52'0 0.0
2014-Dec-19 19:28N 40°57' E 028°52'0 0.0
2014-Dec-19 16:30N 40°57' E 028°52'0 0.0
2014-Dec-19 15:19N 40°57' E 028°52'0 0.0
2014-Dec-19 14:20N 40°57' E 028°52'0 0.0
2014-Dec-19 13:26N 40°57' E 028°52'0 0.0
2014-Dec-19 12:31N 40°57' E 028°52'0 0.0
2014-Dec-19 11:24N 40°57' E 028°52'0 0.0
2014-Dec-19 10:21N 40°57' E 028°52'0 0.0
2014-Dec-19 09:13N 40°57' E 028°52'0 0.0
2014-Dec-19 07:05N 40°57' E 028°52'0 0.0
2014-Dec-19 06:14N 40°57' E 028°52'0 0.0
2014-Dec-19 02:09N 40°57' E 028°52'0 0.1
2014-Dec-19 01:27N 40°57' E 028°52'0 0.0
2014-Dec-19 00:17N 40°57' E 028°52'0 0.1
2014-Dec-18 22:26N 40°57' E 028°52'0 0.0
2014-Dec-18 21:14N 40°57' E 028°52'0 0.0
2014-Dec-18 20:14N 40°57' E 028°52'0 0.4
2014-Dec-18 19:24N 40°57' E 028°52'7 6.8
2014-Dec-18 18:18N 40°51' E 028°46'227 7.6
2014-Dec-17 12:32N 37°51' E 025°46'10 9.9
2014-Dec-17 11:32N 37°41' E 025°46'9 9.4
2014-Dec-17 10:32N 37°32' E 025°49'10 9.8
2014-Dec-17 09:33N 37°24' E 025°55'10 9.5
2014-Dec-17 08:33N 37°16' E 026°01'31 9.4
2014-Dec-17 05:14N 36°48' E 026°21'  

Dump ship's entire track history